Time;durP1;ratioP1;P1;durP2;ratioP2;P2;SDS_P1;SDS_P2;PMS_P1;PMS_P2;Temp;Humidity;BMP_temperature;BMP_pressure;BME280_temperature;BME280_humidity;BME280_pressure;Samples;Min_cycle;Max_cycle;Signal;HPM_P1;HPM_P2
2021/01/19 06:15:35;;;;;;;1.20;0.52;;;17.30;67.30;;;;;;5018612;28;20811;-34
2021/01/19 06:18:00;;;;;;;0.70;0.60;;;17.80;67.40;;;;;;5018425;28;20119;-38
2021/01/19 06:20:26;;;;;;;1.33;0.65;;;17.80;66.90;;;;;;5024639;28;20536;-35
2021/01/19 06:22:52;;;;;;;0.65;0.57;;;17.90;66.90;;;;;;5019404;28;20232;-32
2021/01/19 06:25:17;;;;;;;0.63;0.60;;;17.90;66.70;;;;;;5018036;28;20057;-34
2021/01/19 06:27:43;;;;;;;0.60;0.60;;;17.90;66.10;;;;;;5020065;28;20546;-35
2021/01/19 06:30:13;;;;;;;0.40;0.40;;;18.00;66.20;;;;;;5026446;28;20042;-41
2021/01/19 06:32:45;;;;;;;0.40;0.40;;;18.00;66.40;;;;;;5024405;28;20034;-34
2021/01/19 06:35:15;;;;;;;0.40;0.40;;;18.00;66.30;;;;;;5026144;28;20025;-37
2021/01/19 06:37:41;;;;;;;0.60;0.60;;;18.00;66.40;;;;;;5021060;28;20395;-38
2021/01/19 06:40:09;;;;;;;0.70;0.63;;;18.00;67.10;;;;;;5019280;28;20048;-31
2021/01/19 06:42:35;;;;;;;1.85;0.68;;;18.00;67.10;;;;;;5020770;28;20093;-34
2021/01/19 06:45:05;;;;;;;0.85;0.60;;;18.00;66.60;;;;;;5028734;28;20109;-33
2021/01/19 06:47:33;;;;;;;2.00;0.80;;;18.00;66.50;;;;;;5020594;28;20025;-31
2021/01/19 06:49:59;;;;;;;0.85;0.80;;;18.00;66.50;;;;;;5045436;28;20112;-33
2021/01/19 06:52:25;;;;;;;3.08;0.95;;;18.00;66.30;;;;;;5028871;28;20171;-33
2021/01/19 06:55:18;;;;;;;2.78;0.68;;;18.00;66.40;;;;;;5038428;28;20029;-35
2021/01/19 06:58:10;;;;;;;0.93;0.70;;;17.90;66.20;;;;;;5029213;28;20041;-31
2021/01/19 07:00:40;;;;;;;1.23;0.50;;;18.00;66.10;;;;;;5014190;28;20029;-32
2021/01/19 07:03:32;;;;;;;1.27;0.55;;;18.00;66.00;;;;;;5025759;28;20038;-32
2021/01/19 07:06:01;;;;;;;2.17;0.88;;;18.00;65.90;;;;;;5027938;28;20046;-42
2021/01/19 07:08:46;;;;;;;1.05;0.65;;;18.00;65.60;;;;;;5028492;28;20042;-40
2021/01/19 07:11:26;;;;;;;1.10;0.80;;;18.00;65.80;;;;;;5017709;28;20018;-40
2021/01/19 07:13:52;;;;;;;0.93;0.60;;;17.90;65.70;;;;;;5015890;28;20046;-40
2021/01/19 07:16:22;;;;;;;1.05;0.45;;;17.90;65.90;;;;;;5015335;28;20034;-41
2021/01/19 07:18:51;;;;;;;0.40;0.40;;;17.90;65.70;;;;;;5009016;28;20434;-40
2021/01/19 07:21:18;;;;;;;1.55;0.40;;;17.90;65.70;;;;;;5003969;28;20543;-40
2021/01/19 07:23:46;;;;;;;0.47;0.30;;;17.90;65.80;;;;;;5011836;28;20048;-42
2021/01/19 07:26:22;;;;;;;1.50;0.47;;;17.90;66.60;;;;;;5006035;28;20022;-45
2021/01/19 07:28:51;;;;;;;0.50;0.50;;;17.90;65.60;;;;;;5010309;28;20595;-46
2021/01/19 07:31:19;;;;;;;0.50;0.40;;;17.90;65.50;;;;;;5012783;28;20034;-44
2021/01/19 07:33:48;;;;;;;0.40;0.40;;;17.90;65.60;;;;;;5010378;28;20100;-45
2021/01/19 07:36:15;;;;;;;0.50;0.40;;;17.90;65.50;;;;;;4998721;28;20076;-41
2021/01/19 07:38:40;;;;;;;0.70;0.50;;;17.90;65.60;;;;;;5015691;28;20034;-36
2021/01/19 07:41:06;;;;;;;0.65;0.40;;;17.90;65.60;;;;;;5011186;28;20036;-38
2021/01/19 07:43:34;;;;;;;0.75;0.50;;;17.90;66.40;;;;;;5012403;28;20510;-39
2021/01/19 07:45:59;;;;;;;0.52;0.52;;;17.90;65.40;;;;;;5016063;28;20060;-40
2021/01/19 07:48:35;;;;;;;0.90;0.63;;;17.90;65.50;;;;;;5010971;28;20050;-39
2021/01/19 07:51:13;;;;;;;0.40;0.40;;;17.90;65.40;;;;;;5011438;28;20038;-40
2021/01/19 07:53:53;;;;;;;0.70;0.50;;;17.90;65.30;;;;;;5010170;28;20524;-42
2021/01/19 07:56:22;;;;;;;0.68;0.63;;;17.90;65.40;;;;;;5014262;28;20034;-43
2021/01/19 07:58:48;;;;;;;1.55;0.63;;;17.90;65.30;;;;;;5013989;28;20038;-43
2021/01/19 08:01:23;;;;;;;0.75;0.45;;;17.90;65.40;;;;;;5015524;28;20136;-44
2021/01/19 08:03:48;;;;;;;0.68;0.52;;;17.90;65.40;;;;;;5014991;28;20025;-41
2021/01/19 08:06:14;;;;;;;2.08;0.60;;;17.90;65.30;;;;;;5010125;28;20029;-43
2021/01/19 08:08:39;;;;;;;1.08;0.45;;;17.90;65.30;;;;;;5017769;28;20037;-41
2021/01/19 08:11:05;;;;;;;1.55;0.60;;;17.90;65.00;;;;;;5014793;28;20057;-42
2021/01/19 08:13:31;;;;;;;1.45;0.43;;;17.90;65.00;;;;;;5015154;28;20053;-43
2021/01/19 08:16:04;;;;;;;0.50;0.50;;;17.90;64.90;;;;;;5012357;28;20025;-41
2021/01/19 08:18:37;;;;;;;0.50;0.40;;;17.90;64.90;;;;;;5009797;28;20085;-41
2021/01/19 08:21:06;;;;;;;0.40;0.40;;;17.90;64.80;;;;;;5012333;28;20030;-41
2021/01/19 08:23:33;;;;;;;0.95;0.50;;;18.00;64.80;;;;;;5013395;28;20034;-40
2021/01/19 08:26:06;;;;;;;0.93;0.43;;;18.00;64.90;;;;;;5013095;28;20395;-47
2021/01/19 08:28:32;;;;;;;0.60;0.55;;;18.00;64.90;;;;;;5008315;28;20038;-42
2021/01/19 08:30:57;;;;;;;1.48;0.50;;;18.00;65.00;;;;;;5012582;28;20037;-52
2021/01/19 08:33:24;;;;;;;1.05;0.50;;;17.90;65.00;;;;;;5005879;28;20026;-44
2021/01/19 08:35:50;;;;;;;0.90;0.50;;;17.90;65.10;;;;;;5006735;28;20037;-46
2021/01/19 08:38:15;;;;;;;0.45;0.32;;;17.90;65.10;;;;;;4980290;28;20030;-47
2021/01/19 08:40:41;;;;;;;1.30;0.38;;;17.90;65.10;;;;;;5005235;28;20411;-41
2021/01/19 08:43:07;;;;;;;0.50;0.50;;;17.90;65.00;;;;;;5006080;28;20113;-45
2021/01/19 08:45:39;;;;;;;0.63;0.40;;;17.90;65.00;;;;;;5004286;28;20026;-45
2021/01/19 08:48:06;;;;;;;1.20;0.60;;;17.90;64.90;;;;;;5000445;28;20053;-43
2021/01/19 08:50:35;;;;;;;0.40;0.40;;;17.90;65.10;;;;;;5013085;28;20057;-41
2021/01/19 08:53:10;;;;;;;0.52;0.40;;;17.90;65.10;;;;;;5007576;28;20028;-42
2021/01/19 08:55:36;;;;;;;0.40;0.40;;;17.90;65.00;;;;;;5003748;28;20026;-42
2021/01/19 08:58:02;;;;;;;1.08;0.60;;;17.90;65.70;;;;;;5000222;28;20472;-47
2021/01/19 09:00:37;;;;;;;0.40;0.40;;;17.90;65.00;;;;;;5005796;28;20038;-45
2021/01/19 09:03:18;;;;;;;0.50;0.40;;;17.90;65.00;;;;;;5003596;28;20057;-42
2021/01/19 09:05:43;;;;;;;0.40;0.32;;;17.90;65.00;;;;;;5021981;28;20037;-43
2021/01/19 09:08:16;;;;;;;0.93;0.40;;;17.90;64.90;;;;;;5003005;28;20018;-43
2021/01/19 09:10:42;;;;;;;0.50;0.40;;;17.90;64.90;;;;;;5001578;28;20040;-45
2021/01/19 09:13:08;;;;;;;0.50;0.30;;;17.90;65.00;;;;;;5001565;28;20022;-40
2021/01/19 09:15:43;;;;;;;1.60;0.57;;;17.90;65.00;;;;;;4999567;28;20025;-46
2021/01/19 09:18:10;;;;;;;1.45;0.40;;;17.90;65.00;;;;;;5002177;28;20036;-44
2021/01/19 09:20:36;;;;;;;0.93;0.52;;;17.90;65.00;;;;;;5015746;28;20523;-45
2021/01/19 09:23:17;;;;;;;0.55;0.35;;;17.90;64.90;;;;;;5031415;28;20068;-44
2021/01/19 09:25:43;;;;;;;0.55;0.50;;;17.90;64.90;;;;;;5005954;28;20033;-41
2021/01/19 09:28:09;;;;;;;0.50;0.50;;;17.90;65.00;;;;;;5007887;28;20109;-42
2021/01/19 09:30:35;;;;;;;0.50;0.38;;;17.90;64.90;;;;;;5001438;28;20513;-42
2021/01/19 09:33:05;;;;;;;1.08;0.60;;;17.90;65.00;;;;;;5000739;28;20033;-42
2021/01/19 09:35:31;;;;;;;0.82;0.40;;;17.90;65.00;;;;;;5002930;28;20041;-39
2021/01/19 09:37:56;;;;;;;0.63;0.40;;;17.90;64.90;;;;;;5005619;28;20549;-41
2021/01/19 09:40:32;;;;;;;0.77;0.70;;;17.90;64.90;;;;;;5008773;28;20038;-45
2021/01/19 09:42:58;;;;;;;1.60;0.47;;;17.90;64.90;;;;;;5001222;28;20022;-42
2021/01/19 09:45:23;;;;;;;1.30;0.50;;;17.90;64.90;;;;;;5002981;28;20034;-41
2021/01/19 09:47:49;;;;;;;1.13;0.63;;;17.90;65.00;;;;;;5004769;28;20026;-42
2021/01/19 09:50:14;;;;;;;0.50;0.50;;;17.90;65.00;;;;;;5004553;28;20036;-42
2021/01/19 09:52:44;;;;;;;0.75;0.40;;;17.90;64.90;;;;;;5033044;28;20057;-42
2021/01/19 09:55:14;;;;;;;0.75;0.47;;;17.90;64.80;;;;;;5005489;28;20029;-44
2021/01/19 09:57:39;;;;;;;0.80;0.60;;;17.90;64.80;;;;;;5013336;28;20056;-43
2021/01/19 10:00:07;;;;;;;0.55;0.40;;;17.90;64.80;;;;;;5014158;28;20495;-43
2021/01/19 10:02:33;;;;;;;0.95;0.38;;;17.90;64.70;;;;;;5006203;28;20092;-44
2021/01/19 10:07:28;;;;;;;0.82;0.63;;;17.90;64.10;;;;;;5082619;27;20376;-32
2021/01/19 10:09:54;;;;;;;0.90;0.40;;;17.90;64.80;;;;;;5052346;28;20103;-35
2021/01/19 10:12:19;;;;;;;0.35;0.30;;;17.90;64.60;;;;;;5063426;28;20049;-36
2021/01/19 10:14:46;;;;;;;0.57;0.40;;;17.90;64.50;;;;;;5055509;28;20515;-34
2021/01/19 10:17:11;;;;;;;1.05;0.47;;;17.90;64.60;;;;;;5045513;28;20299;-33
2021/01/19 10:19:37;;;;;;;0.45;0.40;;;17.90;64.40;;;;;;5057183;28;20415;-32
2021/01/19 10:22:04;;;;;;;0.63;0.50;;;17.90;64.40;;;;;;5066356;28;20044;-42
2021/01/19 10:24:30;;;;;;;0.80;0.47;;;17.90;64.40;;;;;;5055142;28;20079;-35
2021/01/19 10:27:02;;;;;;;0.50;0.45;;;17.90;64.30;;;;;;5066071;28;20559;-35
2021/01/19 10:29:43;;;;;;;0.75;0.45;;;17.90;64.30;;;;;;5067314;28;20048;-34
2021/01/19 10:32:13;;;;;;;0.55;0.47;;;17.90;64.30;;;;;;5062054;28;20104;-31
2021/01/19 10:34:43;;;;;;;0.40;0.40;;;17.90;64.20;;;;;;5059699;28;20052;-36
2021/01/19 10:37:09;;;;;;;0.50;0.30;;;18.00;64.40;;;;;;5043830;28;20045;-36
2021/01/19 10:39:34;;;;;;;0.75;0.40;;;17.90;64.10;;;;;;5044599;28;20038;-36
2021/01/19 10:42:00;;;;;;;1.17;0.57;;;18.00;64.30;;;;;;5047522;28;20056;-39
2021/01/19 10:44:25;;;;;;;0.77;0.40;;;18.00;64.20;;;;;;5065698;28;20194;-36
2021/01/19 10:46:58;;;;;;;0.43;0.30;;;18.00;64.40;;;;;;5066551;28;20468;-32
2021/01/19 10:49:27;;;;;;;0.50;0.40;;;18.00;64.10;;;;;;5067074;28;20051;-35
2021/01/19 10:51:53;;;;;;;0.43;0.30;;;18.00;64.00;;;;;;5058750;28;20036;-34
2021/01/19 10:54:19;;;;;;;0.25;0.20;;;18.00;63.90;;;;;;5071301;28;20040;-32
2021/01/19 10:56:46;;;;;;;0.30;0.30;;;18.00;63.90;;;;;;5063915;28;20123;-34
2021/01/19 10:59:12;;;;;;;0.68;0.40;;;18.00;64.00;;;;;;5063557;28;20044;-34
2021/01/19 11:01:38;;;;;;;1.20;0.50;;;18.00;64.00;;;;;;5063645;28;20041;-39
2021/01/19 11:04:04;;;;;;;1.38;0.47;;;18.10;63.90;;;;;;5062066;28;20063;-37
2021/01/19 11:06:35;;;;;;;0.40;0.40;;;18.00;63.80;;;;;;5057231;28;20055;-32
2021/01/19 11:09:00;;;;;;;0.47;0.30;;;18.00;64.70;;;;;;5062691;28;20543;-34
2021/01/19 11:11:27;;;;;;;0.50;0.35;;;18.00;64.00;;;;;;5058022;28;20060;-33
2021/01/19 11:13:53;;;;;;;0.75;0.47;;;18.00;64.10;;;;;;5070656;28;20067;-34
2021/01/19 11:16:19;;;;;;;0.45;0.30;;;18.00;64.20;;;;;;5066846;28;20131;-34
2021/01/19 11:18:45;;;;;;;0.47;0.47;;;18.00;64.20;;;;;;5042368;28;20175;-33
2021/01/19 11:21:10;;;;;;;0.50;0.50;;;18.10;64.20;;;;;;5051417;28;20041;-33
2021/01/19 11:23:36;;;;;;;0.75;0.38;;;18.10;64.30;;;;;;5065667;28;20055;-38
2021/01/19 11:26:01;;;;;;;0.60;0.40;;;18.10;64.10;;;;;;5043547;28;20190;-33
2021/01/19 11:28:27;;;;;;;0.80;0.57;;;18.10;64.30;;;;;;5046574;28;20048;-39
2021/01/19 11:30:52;;;;;;;1.85;0.90;;;18.10;64.00;;;;;;5050456;28;20528;-33
2021/01/19 11:33:18;;;;;;;0.43;0.40;;;18.10;64.20;;;;;;5048839;28;20041;-35
2021/01/19 11:35:44;;;;;;;0.47;0.47;;;18.10;64.50;;;;;;5052313;28;20040;-32
2021/01/19 11:38:09;;;;;;;1.10;0.47;;;18.20;64.20;;;;;;4690114;28;10000248;-35
2021/01/19 11:40:35;;;;;;;0.68;0.60;;;18.20;64.00;;;;;;5046635;28;20041;-33
2021/01/19 11:43:01;;;;;;;1.13;0.50;;;18.10;64.00;;;;;;5046433;28;20484;-38
2021/01/19 11:45:27;;;;;;;1.13;0.60;;;18.10;64.00;;;;;;5047949;28;20053;-36
2021/01/19 11:47:54;;;;;;;1.10;0.55;;;18.10;64.20;;;;;;5052067;28;20419;-37
2021/01/19 11:50:20;;;;;;;1.00;0.80;;;18.20;64.30;;;;;;5047383;28;20044;-37
2021/01/19 11:52:45;;;;;;;0.40;0.40;;;18.10;64.80;;;;;;5050682;28;20491;-33
2021/01/19 11:55:11;;;;;;;1.08;0.70;;;18.10;64.60;;;;;;5048478;28;20046;-35
2021/01/19 11:57:38;;;;;;;1.08;0.60;;;18.10;65.40;;;;;;5055904;28;20047;-35
2021/01/19 12:00:09;;;;;;;0.80;0.60;;;18.10;64.60;;;;;;5059094;28;20056;-44
2021/01/19 12:02:35;;;;;;;0.60;0.47;;;18.10;64.60;;;;;;5057583;28;20131;-39
2021/01/19 12:05:01;;;;;;;0.80;0.52;;;18.10;64.60;;;;;;5048767;28;20128;-37
2021/01/19 12:07:26;;;;;;;0.90;0.50;;;18.20;64.60;;;;;;5048776;28;20694;-33
2021/01/19 12:09:52;;;;;;;1.38;0.60;;;18.10;64.30;;;;;;5050785;28;20469;-33
2021/01/19 12:12:18;;;;;;;0.60;0.60;;;18.20;64.50;;;;;;5052526;28;20091;-36
2021/01/19 12:14:43;;;;;;;0.60;0.50;;;18.20;64.30;;;;;;5039956;28;20045;-34
2021/01/19 12:17:09;;;;;;;3.55;1.08;;;18.20;64.30;;;;;;5069895;28;20587;-34
2021/01/19 12:19:34;;;;;;;0.80;0.60;;;18.20;64.40;;;;;;5048361;28;20100;-36
2021/01/19 12:22:00;;;;;;;1.10;0.50;;;18.20;64.30;;;;;;5046801;28;20094;-39
2021/01/19 12:24:26;;;;;;;0.80;0.50;;;18.20;64.20;;;;;;5046283;28;20041;-32
2021/01/19 12:26:54;;;;;;;0.85;0.65;;;18.20;64.00;;;;;;5049013;28;20044;-37
2021/01/19 12:29:20;;;;;;;4.10;3.30;;;18.20;64.10;;;;;;5049146;28;20056;-45
2021/01/19 12:31:46;;;;;;;7.45;6.45;;;18.20;64.10;;;;;;5052991;28;20404;-34
2021/01/19 12:34:12;;;;;;;5.85;3.00;;;18.20;64.20;;;;;;5057910;28;20055;-35
2021/01/19 12:36:38;;;;;;;3.45;3.20;;;18.20;64.20;;;;;;5056805;28;20040;-33
2021/01/19 12:39:04;;;;;;;15.88;9.75;;;18.20;64.10;;;;;;5045828;28;20139;-34
2021/01/19 12:41:30;;;;;;;7.18;6.22;;;18.10;64.20;;;;;;5051105;28;20063;-34
2021/01/19 12:43:56;;;;;;;11.95;8.88;;;18.20;64.20;;;;;;5046591;28;21633;-32
2021/01/19 12:46:22;;;;;;;11.25;8.82;;;18.20;64.10;;;;;;5046274;28;20111;-37
2021/01/19 12:48:47;;;;;;;10.65;7.97;;;18.20;63.90;;;;;;5045441;28;20159;-32
2021/01/19 12:51:14;;;;;;;12.35;9.15;;;18.20;64.20;;;;;;5068420;28;20037;-34
2021/01/19 12:53:39;;;;;;;12.40;9.75;;;18.20;64.10;;;;;;5057566;28;20060;-40
2021/01/19 12:56:12;;;;;;;12.80;10.02;;;18.20;64.20;;;;;;5049925;28;20055;-43
2021/01/19 12:58:38;;;;;;;19.30;11.73;;;18.20;64.20;;;;;;5053661;28;20060;-35
2021/01/19 13:01:04;;;;;;;13.48;10.10;;;18.20;64.40;;;;;;5050530;28;20033;-33
2021/01/19 13:03:29;;;;;;;15.05;9.80;;;18.20;64.20;;;;;;5052977;28;20136;-36
2021/01/19 13:05:55;;;;;;;11.77;9.38;;;18.20;64.20;;;;;;5057820;28;20448;-38
2021/01/19 13:08:22;;;;;;;11.75;9.68;;;18.20;64.10;;;;;;5049761;28;20463;-37
2021/01/19 13:10:48;;;;;;;12.38;9.32;;;18.30;64.10;;;;;;5045675;28;20094;-34
2021/01/19 13:13:13;;;;;;;11.55;8.63;;;18.40;64.70;;;;;;5048730;28;20048;-36
2021/01/19 13:15:39;;;;;;;13.63;9.38;;;18.40;64.40;;;;;;5046063;28;20045;-33
2021/01/19 13:18:05;;;;;;;10.45;8.60;;;18.40;63.60;;;;;;5049210;28;20072;-36
2021/01/19 13:20:30;;;;;;;12.35;9.50;;;18.50;63.60;;;;;;5051785;28;20526;-39
2021/01/19 13:22:56;;;;;;;11.40;8.82;;;18.50;63.60;;;;;;5050874;28;20121;-36
2021/01/19 13:25:21;;;;;;;13.40;9.13;;;18.50;63.60;;;;;;5048284;28;20048;-38
2021/01/19 13:27:47;;;;;;;10.63;8.85;;;18.50;63.50;;;;;;5048989;28;20036;-44
2021/01/19 13:30:13;;;;;;;13.38;9.05;;;18.50;63.50;;;;;;5051602;28;20052;-35
2021/01/19 13:32:39;;;;;;;11.93;9.07;;;18.50;63.60;;;;;;5049959;28;20037;-38
2021/01/19 13:35:05;;;;;;;13.65;8.43;;;18.50;63.80;;;;;;5043804;28;20049;-37
2021/01/19 13:37:31;;;;;;;11.95;8.30;;;18.40;64.00;;;;;;5047970;28;20502;-35
2021/01/19 13:39:57;;;;;;;9.77;7.95;;;18.50;64.20;;;;;;5049968;28;20048;-34
2021/01/19 13:42:22;;;;;;;7.93;7.13;;;18.50;64.10;;;;;;5046452;28;20577;-40
2021/01/19 13:44:48;;;;;;;10.43;8.23;;;18.50;64.30;;;;;;5047180;28;20072;-51
2021/01/19 13:47:13;;;;;;;10.60;7.65;;;18.40;64.30;;;;;;5045412;28;20053;-37
2021/01/19 13:49:39;;;;;;;8.07;7.28;;;18.40;64.70;;;;;;5047835;28;20401;-34
2021/01/19 13:52:04;;;;;;;7.70;6.85;;;18.50;64.40;;;;;;5049790;28;21674;-37
2021/01/19 13:54:30;;;;;;;9.10;6.93;;;18.50;64.40;;;;;;5053967;28;20047;-35
2021/01/19 13:56:57;;;;;;;8.75;7.18;;;18.60;64.30;;;;;;5047151;28;20466;-35
2021/01/19 13:59:22;;;;;;;7.97;7.00;;;18.50;64.40;;;;;;5046868;28;20029;-35
2021/01/19 14:01:49;;;;;;;7.85;7.03;;;18.50;64.70;;;;;;5047309;28;20139;-34
2021/01/19 14:04:15;;;;;;;7.55;6.80;;;18.50;64.70;;;;;;5046079;28;20045;-37
2021/01/19 14:06:45;;;;;;;9.30;7.25;;;18.40;64.90;;;;;;5048118;28;20125;-36
2021/01/19 14:09:11;;;;;;;7.47;6.78;;;18.40;64.90;;;;;;5039289;22;20060;-43
2021/01/19 14:11:37;;;;;;;7.00;6.40;;;18.40;64.90;;;;;;4991445;28;20046;-37
2021/01/19 14:14:05;;;;;;;7.65;6.53;;;18.40;64.80;;;;;;4993113;28;20537;-38
2021/01/19 14:16:31;;;;;;;7.90;6.78;;;18.50;64.70;;;;;;4995668;28;20053;-42
2021/01/19 14:18:57;;;;;;;7.35;6.65;;;18.50;64.70;;;;;;5000067;28;20118;-38
2021/01/19 14:21:23;;;;;;;6.60;6.00;;;18.50;64.40;;;;;;4997885;28;20046;-41
2021/01/19 14:23:49;;;;;;;6.90;6.18;;;18.60;64.30;;;;;;5010972;28;20045;-33
2021/01/19 14:26:33;;;;;;;6.43;5.82;;;18.60;64.20;;;;;;4995737;28;20529;-36
2021/01/19 14:28:59;;;;;;;6.07;5.57;;;18.60;64.10;;;;;;4998480;28;20146;-33
2021/01/19 14:31:41;;;;;;;6.28;5.68;;;18.60;64.10;;;;;;4997897;28;20054;-43
2021/01/19 14:34:07;;;;;;;6.20;5.47;;;18.70;63.90;;;;;;4997819;28;20092;-35
2021/01/19 14:36:32;;;;;;;5.80;5.28;;;18.70;63.80;;;;;;4998372;28;20054;-34
2021/01/19 14:38:58;;;;;;;6.50;5.63;;;18.60;63.80;;;;;;4995212;28;20156;-33
2021/01/19 14:41:24;;;;;;;5.30;4.80;;;18.60;63.90;;;;;;5013298;28;20841;-37
2021/01/19 14:43:50;;;;;;;5.32;4.93;;;18.60;63.90;;;;;;4996262;28;20053;-47
2021/01/19 14:46:24;;;;;;;4.78;4.38;;;18.50;64.00;;;;;;5004217;28;20057;-35
2021/01/19 14:48:53;;;;;;;5.72;5.00;;;18.60;64.10;;;;;;5000504;28;20050;-34
2021/01/19 14:51:22;;;;;;;5.43;4.95;;;18.50;64.10;;;;;;4999242;28;20038;-35
2021/01/19 14:53:48;;;;;;;5.85;5.18;;;18.50;64.00;;;;;;5003290;28;20521;-42
2021/01/19 14:56:14;;;;;;;5.18;4.70;;;18.50;64.00;;;;;;4999669;28;20050;-42
2021/01/19 14:58:39;;;;;;;5.18;4.78;;;18.50;64.20;;;;;;5001173;28;20052;-41
2021/01/19 15:01:05;;;;;;;5.07;4.50;;;18.50;64.20;;;;;;5003165;28;20409;-43
2021/01/19 15:03:30;;;;;;;4.97;4.50;;;18.40;64.20;;;;;;5004944;28;20068;-42
2021/01/19 15:05:57;;;;;;;4.72;4.22;;;18.40;64.20;;;;;;5001749;28;20124;-45
2021/01/19 15:08:23;;;;;;;4.95;4.55;;;18.40;64.30;;;;;;5006785;28;20514;-42
2021/01/19 15:10:48;;;;;;;4.28;3.95;;;18.40;64.10;;;;;;5012421;28;20087;-35
2021/01/19 15:13:14;;;;;;;4.68;4.28;;;18.40;64.20;;;;;;5006020;28;20050;-35
2021/01/19 15:15:39;;;;;;;4.53;4.22;;;18.40;63.90;;;;;;5004198;28;20033;-36
2021/01/19 15:18:05;;;;;;;5.05;4.55;;;18.40;63.90;;;;;;5009912;28;20045;-36
2021/01/19 15:20:32;;;;;;;4.75;4.35;;;18.40;63.80;;;;;;5011382;28;20073;-34
2021/01/19 15:22:57;;;;;;;3.85;3.65;;;18.50;64.10;;;;;;5004848;23;20084;-33
2021/01/19 15:25:23;;;;;;;4.35;3.95;;;18.60;63.80;;;;;;4973530;28;20569;-32
2021/01/19 15:27:49;;;;;;;4.50;4.20;;;18.60;63.60;;;;;;4983756;28;20049;-34
2021/01/19 15:30:15;;;;;;;4.18;3.78;;;18.60;63.40;;;;;;4991087;28;20085;-41
2021/01/19 15:32:41;;;;;;;4.32;4.03;;;18.60;63.60;;;;;;4985971;28;20054;-38
2021/01/19 15:35:08;;;;;;;4.13;3.83;;;18.60;63.40;;;;;;4989573;28;20042;-32
2021/01/19 15:37:34;;;;;;;3.78;3.50;;;18.60;63.40;;;;;;4986543;28;20514;-41
2021/01/19 15:39:59;;;;;;;5.05;3.80;;;18.60;63.50;;;;;;4984962;28;20052;-52
2021/01/19 15:42:25;;;;;;;4.47;4.18;;;18.60;63.50;;;;;;4983594;28;20046;-34
2021/01/19 15:44:50;;;;;;;4.40;3.70;;;18.70;63.60;;;;;;4987825;28;20180;-37
2021/01/19 15:47:16;;;;;;;3.95;3.65;;;18.70;63.60;;;;;;4985208;28;20058;-33
2021/01/19 15:49:41;;;;;;;3.83;3.53;;;18.70;64.60;;;;;;4985297;28;20042;-42
2021/01/19 15:52:09;;;;;;;5.68;3.92;;;18.70;63.60;;;;;;4982690;28;20458;-35
2021/01/19 15:54:35;;;;;;;3.72;3.42;;;18.60;64.00;;;;;;4991358;28;20054;-34
2021/01/19 15:57:00;;;;;;;8.82;3.83;;;18.70;63.90;;;;;;5007787;28;20065;-44
2021/01/19 15:59:28;;;;;;;4.97;3.63;;;18.60;64.00;;;;;;4988068;28;20575;-44
2021/01/19 16:01:54;;;;;;;4.40;4.03;;;18.60;64.20;;;;;;4985562;28;20124;-37
2021/01/19 16:04:19;;;;;;;6.57;4.15;;;18.50;64.50;;;;;;4991835;28;20116;-33
2021/01/19 16:06:45;;;;;;;4.07;3.78;;;18.60;64.50;;;;;;4987728;28;20429;-41
2021/01/19 16:09:12;;;;;;;4.43;4.03;;;18.60;64.40;;;;;;4985594;28;20137;-35
2021/01/19 16:11:38;;;;;;;4.20;3.47;;;18.60;64.60;;;;;;4987774;28;20066;-38
2021/01/19 16:14:04;;;;;;;4.68;3.55;;;18.60;64.50;;;;;;4987986;28;20038;-33
2021/01/19 16:16:32;;;;;;;3.55;3.25;;;18.50;64.50;;;;;;5004239;28;20100;-33
2021/01/19 16:18:58;;;;;;;5.43;4.03;;;18.60;64.60;;;;;;4986659;28;20462;-37
2021/01/19 16:21:23;;;;;;;17.17;10.32;;;18.50;64.40;;;;;;4987016;28;20038;-35
2021/01/19 16:23:49;;;;;;;19.00;11.75;;;18.60;64.40;;;;;;5015462;28;20387;-37
2021/01/19 16:26:28;;;;;;;12.15;8.48;;;18.60;64.50;;;;;;5015278;28;20486;-41
2021/01/19 16:28:55;;;;;;;15.20;9.20;;;18.60;64.40;;;;;;4983513;28;20225;-27
2021/01/19 16:31:22;;;;;;;14.77;9.93;;;18.70;64.40;;;;;;4985058;28;20494;-35
2021/01/19 16:33:48;;;;;;;16.20;10.23;;;18.60;64.50;;;;;;4984593;28;20039;-39
2021/01/19 16:36:14;;;;;;;16.92;9.73;;;18.60;64.60;;;;;;4983027;28;20088;-47
2021/01/19 16:38:40;;;;;;;15.10;9.27;;;18.60;64.40;;;;;;4988257;28;20042;-33
2021/01/19 16:41:06;;;;;;;13.20;8.43;;;18.60;64.70;;;;;;4988800;28;20793;-34
2021/01/19 16:43:32;;;;;;;11.73;8.05;;;18.60;64.50;;;;;;4986579;28;20046;-34
2021/01/19 16:45:59;;;;;;;12.95;8.65;;;18.60;64.50;;;;;;4988111;28;20090;-32
2021/01/19 16:48:25;;;;;;;20.02;9.75;;;18.60;64.50;;;;;;4991565;28;20085;-32
2021/01/19 16:50:51;;;;;;;10.38;8.40;;;18.60;64.60;;;;;;4991668;28;20565;-35
2021/01/19 16:53:17;;;;;;;10.68;7.18;;;18.60;64.20;;;;;;4988799;28;20043;-35
2021/01/19 16:55:43;;;;;;;11.90;7.43;;;18.60;64.40;;;;;;4988812;28;20113;-35
2021/01/19 16:58:08;;;;;;;13.50;8.85;;;18.60;64.30;;;;;;4985151;28;20465;-40
2021/01/19 17:00:34;;;;;;;12.10;8.20;;;18.60;64.60;;;;;;4999303;28;20050;-42
2021/01/19 17:03:00;;;;;;;10.07;7.90;;;18.60;64.40;;;;;;4983200;28;20041;-33
2021/01/19 17:05:25;;;;;;;13.35;8.48;;;18.60;64.20;;;;;;4989074;28;20046;-35
2021/01/19 17:07:51;;;;;;;11.60;8.20;;;18.60;64.80;;;;;;4980585;28;20114;-34
2021/01/19 17:10:16;;;;;;;11.57;8.35;;;18.70;64.50;;;;;;4983319;28;20110;-39
2021/01/19 17:12:46;;;;;;;13.45;8.68;;;18.70;64.30;;;;;;4982623;28;20043;-39
2021/01/19 17:15:13;;;;;;;13.15;8.63;;;18.70;64.40;;;;;;4295261;28;10000746;-34
2021/01/19 17:17:38;;;;;;;11.30;7.90;;;18.70;64.30;;;;;;4980484;28;20046;-53
2021/01/19 17:20:05;;;;;;;11.73;7.57;;;18.70;64.20;;;;;;4974225;28;20043;-47
2021/01/19 17:22:30;;;;;;;12.25;7.35;;;18.70;64.30;;;;;;5005250;28;20501;-35
2021/01/19 17:24:56;;;;;;;12.68;7.25;;;18.70;64.70;;;;;;4981472;28;20053;-43
2021/01/19 17:27:21;;;;;;;7.63;6.70;;;18.70;64.70;;;;;;4979387;28;20062;-30
2021/01/19 17:29:47;;;;;;;9.10;7.45;;;18.70;64.70;;;;;;4985322;28;20042;-33
2021/01/19 17:32:13;;;;;;;10.10;6.88;;;18.70;64.70;;;;;;4977839;28;20045;-37
2021/01/19 17:34:38;;;;;;;8.57;6.88;;;18.70;64.80;;;;;;4978348;28;20568;-40
2021/01/19 17:37:04;;;;;;;12.10;7.28;;;18.80;64.90;;;;;;4980071;28;20038;-34
2021/01/19 17:39:30;;;;;;;10.07;6.35;;;18.80;65.00;;;;;;4979584;28;20049;-37
2021/01/19 17:41:56;;;;;;;8.43;5.90;;;18.80;65.30;;;;;;4978414;28;20042;-38
2021/01/19 17:44:22;;;;;;;10.82;6.80;;;18.80;65.00;;;;;;4989832;28;20915;-52
2021/01/19 17:46:47;;;;;;;7.78;6.30;;;18.80;65.10;;;;;;4970423;28;20058;-44
2021/01/19 17:49:13;;;;;;;9.25;6.28;;;18.70;65.40;;;;;;4971039;28;20042;-35
2021/01/19 17:51:38;;;;;;;9.00;6.45;;;18.80;65.50;;;;;;4637167;28;9999778;-35
2021/01/19 17:54:06;;;;;;;7.78;6.00;;;18.80;65.10;;;;;;4982454;28;20034;-37
2021/01/19 17:56:33;;;;;;;8.43;5.93;;;18.80;65.20;;;;;;4979825;28;20061;-34
2021/01/19 17:58:58;;;;;;;8.05;5.47;;;18.80;65.40;;;;;;4980673;28;20056;-37
2021/01/19 18:01:24;;;;;;;8.70;5.63;;;18.80;65.30;;;;;;5004519;28;20042;-33
2021/01/19 18:03:53;;;;;;;7.55;5.40;;;18.80;65.20;;;;;;4978972;28;20137;-39
2021/01/19 18:06:32;;;;;;;11.35;5.35;;;18.80;65.10;;;;;;4994078;28;20073;-34
2021/01/19 18:09:05;;;;;;;5.32;4.82;;;18.80;65.10;;;;;;4971927;28;20050;-36
2021/01/19 18:11:31;;;;;;;7.13;5.03;;;18.80;65.00;;;;;;4973822;28;20422;-50
2021/01/19 18:13:57;;;;;;;7.18;5.35;;;18.80;64.80;;;;;;4963971;28;20050;-45
2021/01/19 18:16:29;;;;;;;8.18;5.68;;;18.80;64.80;;;;;;4964143;28;20057;-45
2021/01/19 18:18:55;;;;;;;14.82;10.57;;;18.80;65.10;;;;;;4981855;28;20052;-46
2021/01/19 18:21:22;;;;;;;7.70;6.57;;;18.80;64.90;;;;;;4979121;28;20054;-36
2021/01/19 18:23:52;;;;;;;6.45;5.15;;;18.70;65.30;;;;;;4980480;28;20086;-34
2021/01/19 18:26:19;;;;;;;6.32;5.72;;;18.70;65.70;;;;;;4995104;28;20054;-36
2021/01/19 18:28:44;;;;;;;10.15;7.82;;;18.80;65.20;;;;;;4981677;28;20049;-39
2021/01/19 18:31:10;;;;;;;22.00;14.77;;;18.90;64.90;;;;;;4979651;28;20053;-37
2021/01/19 18:33:35;;;;;;;22.67;14.10;;;18.80;64.60;;;;;;4978139;28;20054;-36
2021/01/19 18:36:01;;;;;;;36.05;22.38;;;18.80;64.40;;;;;;4984736;28;20050;-42
2021/01/19 18:38:26;;;;;;;61.72;35.70;;;18.80;64.30;;;;;;4984672;28;20137;-35
2021/01/19 18:40:52;;;;;;;83.85;46.08;;;18.80;64.40;;;;;;4983955;28;20094;-41
2021/01/19 18:43:18;;;;;;;107.38;61.38;;;18.80;64.40;;;;;;4982901;28;20080;-48
2021/01/19 18:45:43;;;;;;;120.88;70.43;;;18.80;64.10;;;;;;4982352;28;20112;-39
2021/01/19 18:48:09;;;;;;;135.80;79.30;;;18.90;63.90;;;;;;4985062;28;20132;-39
2021/01/19 18:50:35;;;;;;;133.85;81.28;;;19.00;63.70;;;;;;4986222;28;20042;-41
2021/01/19 18:53:02;;;;;;;132.20;76.22;;;19.00;63.60;;;;;;5007180;23;20093;-36
2021/01/19 18:55:28;;;;;;;187.10;108.63;;;19.00;63.50;;;;;;4669406;28;10000263;-42
2021/01/19 18:57:53;;;;;;;172.55;97.22;;;19.00;63.60;;;;;;5006170;28;20056;-35
2021/01/19 19:00:19;;;;;;;158.02;92.20;;;19.10;63.50;;;;;;5009457;28;20041;-35